sensor_id;sensor_type;location;lat;lon;timestamp;P1;durP1;ratioP1;P2;durP2;ratioP2
86267;SDS011;76928;48.002;8.130;2024-03-06T00:02:14;1.88;;;1.73;;
86267;SDS011;76928;48.002;8.130;2024-03-06T00:04:41;1.87;;;1.77;;
86267;SDS011;76928;48.002;8.130;2024-03-06T00:07:08;2.00;;;1.80;;
86267;SDS011;76928;48.002;8.130;2024-03-06T00:09:35;1.73;;;1.63;;
86267;SDS011;76928;48.002;8.130;2024-03-06T00:12:02;2.08;;;1.70;;
86267;SDS011;76928;48.002;8.130;2024-03-06T00:14:30;1.83;;;1.73;;
86267;SDS011;76928;48.002;8.130;2024-03-06T00:16:56;1.80;;;1.70;;
86267;SDS011;76928;48.002;8.130;2024-03-06T00:19:23;1.85;;;1.75;;
86267;SDS011;76928;48.002;8.130;2024-03-06T00:21:50;1.83;;;1.73;;
86267;SDS011;76928;48.002;8.130;2024-03-06T00:24:17;2.00;;;1.80;;
86267;SDS011;76928;48.002;8.130;2024-03-06T00:26:44;1.80;;;1.70;;
86267;SDS011;76928;48.002;8.130;2024-03-06T00:29:12;2.15;;;1.95;;
86267;SDS011;76928;48.002;8.130;2024-03-06T00:31:42;2.00;;;1.90;;
86267;SDS011;76928;48.002;8.130;2024-03-06T00:34:12;1.90;;;1.80;;
86267;SDS011;76928;48.002;8.130;2024-03-06T00:36:44;1.90;;;1.80;;
86267;SDS011;76928;48.002;8.130;2024-03-06T00:39:11;1.92;;;1.80;;
86267;SDS011;76928;48.002;8.130;2024-03-06T00:41:40;1.90;;;1.80;;
86267;SDS011;76928;48.002;8.130;2024-03-06T00:44:08;1.90;;;1.73;;
86267;SDS011;76928;48.002;8.130;2024-03-06T00:46:34;1.80;;;1.70;;
86267;SDS011;76928;48.002;8.130;2024-03-06T00:49:01;1.90;;;1.80;;
86267;SDS011;76928;48.002;8.130;2024-03-06T00:51:28;1.90;;;1.80;;
86267;SDS011;76928;48.002;8.130;2024-03-06T00:53:54;1.80;;;1.70;;
86267;SDS011;76928;48.002;8.130;2024-03-06T00:56:22;1.80;;;1.70;;
86267;SDS011;76928;48.002;8.130;2024-03-06T00:58:49;1.80;;;1.70;;
86267;SDS011;76928;48.002;8.130;2024-03-06T01:01:16;2.00;;;1.90;;
86267;SDS011;76928;48.002;8.130;2024-03-06T01:03:43;2.00;;;1.90;;
86267;SDS011;76928;48.002;8.130;2024-03-06T01:06:10;1.92;;;1.83;;
86267;SDS011;76928;48.002;8.130;2024-03-06T01:08:37;2.10;;;2.00;;
86267;SDS011;76928;48.002;8.130;2024-03-06T01:11:03;1.95;;;1.85;;
86267;SDS011;76928;48.002;8.130;2024-03-06T01:13:31;1.92;;;1.83;;
86267;SDS011;76928;48.002;8.130;2024-03-06T01:15:57;2.10;;;2.00;;
86267;SDS011;76928;48.002;8.130;2024-03-06T01:18:24;1.98;;;1.88;;
86267;SDS011;76928;48.002;8.130;2024-03-06T01:20:51;2.30;;;2.10;;
86267;SDS011;76928;48.002;8.130;2024-03-06T01:23:17;1.95;;;1.85;;
86267;SDS011;76928;48.002;8.130;2024-03-06T01:25:44;1.97;;;1.87;;
86267;SDS011;76928;48.002;8.130;2024-03-06T01:28:11;2.00;;;1.90;;
86267;SDS011;76928;48.002;8.130;2024-03-06T01:30:38;1.95;;;1.85;;
86267;SDS011;76928;48.002;8.130;2024-03-06T01:33:05;2.00;;;1.90;;
86267;SDS011;76928;48.002;8.130;2024-03-06T01:35:32;2.00;;;1.90;;
86267;SDS011;76928;48.002;8.130;2024-03-06T01:37:59;2.00;;;1.90;;
86267;SDS011;76928;48.002;8.130;2024-03-06T01:40:27;2.10;;;2.00;;
86267;SDS011;76928;48.002;8.130;2024-03-06T01:42:55;2.20;;;2.00;;
86267;SDS011;76928;48.002;8.130;2024-03-06T01:45:22;2.20;;;2.10;;
86267;SDS011;76928;48.002;8.130;2024-03-06T01:47:49;2.10;;;2.00;;
86267;SDS011;76928;48.002;8.130;2024-03-06T01:50:16;2.10;;;2.00;;
86267;SDS011;76928;48.002;8.130;2024-03-06T01:52:43;2.08;;;1.98;;
86267;SDS011;76928;48.002;8.130;2024-03-06T01:55:11;2.10;;;2.00;;
86267;SDS011;76928;48.002;8.130;2024-03-06T01:57:40;1.95;;;1.85;;
86267;SDS011;76928;48.002;8.130;2024-03-06T02:00:08;2.20;;;2.10;;
86267;SDS011;76928;48.002;8.130;2024-03-06T02:02:41;2.30;;;2.10;;
86267;SDS011;76928;48.002;8.130;2024-03-06T02:05:08;2.08;;;1.98;;
86267;SDS011;76928;48.002;8.130;2024-03-06T02:07:36;2.20;;;2.10;;
86267;SDS011;76928;48.002;8.130;2024-03-06T02:10:06;2.17;;;1.97;;
86267;SDS011;76928;48.002;8.130;2024-03-06T02:12:36;2.00;;;1.90;;
86267;SDS011;76928;48.002;8.130;2024-03-06T02:15:03;2.17;;;2.07;;
86267;SDS011;76928;48.002;8.130;2024-03-06T02:17:31;2.05;;;1.85;;
86267;SDS011;76928;48.002;8.130;2024-03-06T02:19:57;2.00;;;1.90;;
86267;SDS011;76928;48.002;8.130;2024-03-06T02:22:24;2.17;;;2.03;;
86267;SDS011;76928;48.002;8.130;2024-03-06T02:24:51;2.00;;;1.90;;
86267;SDS011;76928;48.002;8.130;2024-03-06T02:27:18;1.90;;;1.80;;
86267;SDS011;76928;48.002;8.130;2024-03-06T02:29:44;1.92;;;1.83;;
86267;SDS011;76928;48.002;8.130;2024-03-06T02:32:14;2.00;;;1.90;;
86267;SDS011;76928;48.002;8.130;2024-03-06T02:34:43;2.03;;;1.92;;
86267;SDS011;76928;48.002;8.130;2024-03-06T02:37:10;2.00;;;1.90;;
86267;SDS011;76928;48.002;8.130;2024-03-06T02:39:37;2.00;;;1.90;;
86267;SDS011;76928;48.002;8.130;2024-03-06T02:42:03;2.10;;;2.00;;
86267;SDS011;76928;48.002;8.130;2024-03-06T02:44:30;2.03;;;1.92;;
86267;SDS011;76928;48.002;8.130;2024-03-06T02:46:57;2.00;;;1.90;;
86267;SDS011;76928;48.002;8.130;2024-03-06T02:49:24;1.90;;;1.80;;
86267;SDS011;76928;48.002;8.130;2024-03-06T02:51:50;1.97;;;1.87;;
86267;SDS011;76928;48.002;8.130;2024-03-06T02:54:17;2.00;;;1.90;;
86267;SDS011;76928;48.002;8.130;2024-03-06T02:56:45;1.80;;;1.70;;
86267;SDS011;76928;48.002;8.130;2024-03-06T02:59:11;2.00;;;1.80;;
86267;SDS011;76928;48.002;8.130;2024-03-06T03:01:39;2.05;;;1.90;;
86267;SDS011;76928;48.002;8.130;2024-03-06T03:04:06;1.80;;;1.70;;
86267;SDS011;76928;48.002;8.130;2024-03-06T03:06:33;1.83;;;1.73;;
86267;SDS011;76928;48.002;8.130;2024-03-06T03:09:00;1.83;;;1.73;;
86267;SDS011;76928;48.002;8.130;2024-03-06T03:11:27;1.80;;;1.70;;
86267;SDS011;76928;48.002;8.130;2024-03-06T03:13:54;2.10;;;1.90;;
86267;SDS011;76928;48.002;8.130;2024-03-06T03:16:21;1.90;;;1.80;;
86267;SDS011;76928;48.002;8.130;2024-03-06T03:18:47;1.80;;;1.70;;
86267;SDS011;76928;48.002;8.130;2024-03-06T03:21:14;1.77;;;1.67;;
86267;SDS011;76928;48.002;8.130;2024-03-06T03:23:41;1.70;;;1.60;;
86267;SDS011;76928;48.002;8.130;2024-03-06T03:26:08;1.60;;;1.50;;
86267;SDS011;76928;48.002;8.130;2024-03-06T03:28:38;1.77;;;1.67;;
86267;SDS011;76928;48.002;8.130;2024-03-06T03:31:08;1.70;;;1.60;;
86267;SDS011;76928;48.002;8.130;2024-03-06T03:33:39;1.90;;;1.60;;
86267;SDS011;76928;48.002;8.130;2024-03-06T03:36:06;1.80;;;1.70;;
86267;SDS011;76928;48.002;8.130;2024-03-06T03:38:37;1.85;;;1.75;;
86267;SDS011;76928;48.002;8.130;2024-03-06T03:41:10;1.80;;;1.70;;
86267;SDS011;76928;48.002;8.130;2024-03-06T03:43:42;1.65;;;1.55;;
86267;SDS011;76928;48.002;8.130;2024-03-06T03:46:09;1.70;;;1.60;;
86267;SDS011;76928;48.002;8.130;2024-03-06T03:48:36;1.90;;;1.80;;
86267;SDS011;76928;48.002;8.130;2024-03-06T03:51:03;1.60;;;1.50;;
86267;SDS011;76928;48.002;8.130;2024-03-06T03:53:33;1.67;;;1.57;;
86267;SDS011;76928;48.002;8.130;2024-03-06T03:56:01;1.60;;;1.50;;
86267;SDS011;76928;48.002;8.130;2024-03-06T03:58:29;1.70;;;1.60;;
86267;SDS011;76928;48.002;8.130;2024-03-06T04:00:55;1.70;;;1.60;;
86267;SDS011;76928;48.002;8.130;2024-03-06T04:03:22;1.63;;;1.53;;
86267;SDS011;76928;48.002;8.130;2024-03-06T04:05:50;1.60;;;1.50;;
86267;SDS011;76928;48.002;8.130;2024-03-06T04:08:17;1.73;;;1.63;;
86267;SDS011;76928;48.002;8.130;2024-03-06T04:10:43;1.70;;;1.60;;
86267;SDS011;76928;48.002;8.130;2024-03-06T04:13:14;1.60;;;1.50;;
86267;SDS011;76928;48.002;8.130;2024-03-06T04:15:42;1.50;;;1.40;;
86267;SDS011;76928;48.002;8.130;2024-03-06T04:18:09;1.63;;;1.53;;
86267;SDS011;76928;48.002;8.130;2024-03-06T04:20:35;1.50;;;1.40;;
86267;SDS011;76928;48.002;8.130;2024-03-06T04:23:02;1.60;;;1.50;;
86267;SDS011;76928;48.002;8.130;2024-03-06T04:25:29;1.50;;;1.40;;
86267;SDS011;76928;48.002;8.130;2024-03-06T04:27:56;1.50;;;1.40;;
86267;SDS011;76928;48.002;8.130;2024-03-06T04:30:23;1.70;;;1.60;;
86267;SDS011;76928;48.002;8.130;2024-03-06T04:32:50;1.40;;;1.30;;
86267;SDS011;76928;48.002;8.130;2024-03-06T04:35:17;1.20;;;1.20;;
86267;SDS011;76928;48.002;8.130;2024-03-06T04:37:44;1.60;;;1.50;;
86267;SDS011;76928;48.002;8.130;2024-03-06T04:40:11;1.50;;;1.40;;
86267;SDS011;76928;48.002;8.130;2024-03-06T04:42:41;1.23;;;1.20;;
86267;SDS011;76928;48.002;8.130;2024-03-06T04:45:11;1.40;;;1.30;;
86267;SDS011;76928;48.002;8.130;2024-03-06T04:47:41;1.48;;;1.38;;
86267;SDS011;76928;48.002;8.130;2024-03-06T04:50:11;1.40;;;1.30;;
86267;SDS011;76928;48.002;8.130;2024-03-06T04:52:40;1.20;;;1.20;;
86267;SDS011;76928;48.002;8.130;2024-03-06T04:55:07;1.50;;;1.40;;
86267;SDS011;76928;48.002;8.130;2024-03-06T04:57:38;1.50;;;1.40;;
86267;SDS011;76928;48.002;8.130;2024-03-06T05:00:09;1.40;;;1.30;;
86267;SDS011;76928;48.002;8.130;2024-03-06T05:02:37;1.30;;;1.20;;
86267;SDS011;76928;48.002;8.130;2024-03-06T05:05:04;1.35;;;1.25;;
86267;SDS011;76928;48.002;8.130;2024-03-06T05:07:31;1.30;;;1.20;;
86267;SDS011;76928;48.002;8.130;2024-03-06T05:09:58;1.40;;;1.30;;
86267;SDS011;76928;48.002;8.130;2024-03-06T05:12:26;1.40;;;1.30;;
86267;SDS011;76928;48.002;8.130;2024-03-06T05:14:53;1.27;;;1.20;;
86267;SDS011;76928;48.002;8.130;2024-03-06T05:17:21;1.48;;;1.38;;
86267;SDS011;76928;48.002;8.130;2024-03-06T05:19:49;1.10;;;1.10;;
86267;SDS011;76928;48.002;8.130;2024-03-06T05:22:16;1.27;;;1.20;;
86267;SDS011;76928;48.002;8.130;2024-03-06T05:24:43;1.35;;;1.25;;
86267;SDS011;76928;48.002;8.130;2024-03-06T05:27:10;1.40;;;1.30;;
86267;SDS011;76928;48.002;8.130;2024-03-06T05:29:41;1.20;;;1.10;;
86267;SDS011;76928;48.002;8.130;2024-03-06T05:32:09;1.58;;;1.48;;
86267;SDS011;76928;48.002;8.130;2024-03-06T05:34:36;1.40;;;1.30;;
86267;SDS011;76928;48.002;8.130;2024-03-06T05:37:03;1.30;;;1.20;;
86267;SDS011;76928;48.002;8.130;2024-03-06T05:39:31;1.30;;;1.20;;
86267;SDS011;76928;48.002;8.130;2024-03-06T05:42:01;1.10;;;1.10;;
86267;SDS011;76928;48.002;8.130;2024-03-06T05:44:30;1.27;;;1.17;;
86267;SDS011;76928;48.002;8.130;2024-03-06T05:46:58;1.25;;;1.15;;
86267;SDS011;76928;48.002;8.130;2024-03-06T05:49:25;1.30;;;1.20;;
86267;SDS011;76928;48.002;8.130;2024-03-06T05:51:52;1.15;;;1.10;;
86267;SDS011;76928;48.002;8.130;2024-03-06T05:54:22;1.08;;;1.08;;
86267;SDS011;76928;48.002;8.130;2024-03-06T05:56:51;1.03;;;1.03;;
86267;SDS011;76928;48.002;8.130;2024-03-06T05:59:20;1.10;;;1.10;;
86267;SDS011;76928;48.002;8.130;2024-03-06T06:01:47;1.25;;;1.15;;
86267;SDS011;76928;48.002;8.130;2024-03-06T06:04:14;1.00;;;1.00;;
86267;SDS011;76928;48.002;8.130;2024-03-06T06:06:41;1.20;;;1.10;;
86267;SDS011;76928;48.002;8.130;2024-03-06T06:09:07;1.00;;;1.00;;
86267;SDS011;76928;48.002;8.130;2024-03-06T06:11:42;1.17;;;1.10;;
86267;SDS011;76928;48.002;8.130;2024-03-06T06:14:09;1.10;;;1.10;;
86267;SDS011;76928;48.002;8.130;2024-03-06T06:16:37;1.10;;;1.10;;
86267;SDS011;76928;48.002;8.130;2024-03-06T06:19:04;1.20;;;1.10;;
86267;SDS011;76928;48.002;8.130;2024-03-06T06:21:31;1.00;;;1.00;;
86267;SDS011;76928;48.002;8.130;2024-03-06T06:23:58;1.00;;;1.00;;
86267;SDS011;76928;48.002;8.130;2024-03-06T06:26:25;1.00;;;1.00;;
86267;SDS011;76928;48.002;8.130;2024-03-06T06:28:52;1.00;;;1.00;;
86267;SDS011;76928;48.002;8.130;2024-03-06T06:31:18;1.02;;;1.02;;
86267;SDS011;76928;48.002;8.130;2024-03-06T06:33:45;1.17;;;1.10;;
86267;SDS011;76928;48.002;8.130;2024-03-06T06:36:13;1.23;;;1.13;;
86267;SDS011;76928;48.002;8.130;2024-03-06T06:38:39;1.00;;;1.00;;
86267;SDS011;76928;48.002;8.130;2024-03-06T06:41:06;1.10;;;1.03;;
86267;SDS011;76928;48.002;8.130;2024-03-06T06:43:33;1.00;;;1.00;;
86267;SDS011;76928;48.002;8.130;2024-03-06T06:46:00;1.17;;;1.10;;
86267;SDS011;76928;48.002;8.130;2024-03-06T06:48:27;1.00;;;1.00;;
86267;SDS011;76928;48.002;8.130;2024-03-06T06:50:54;1.10;;;1.10;;
86267;SDS011;76928;48.002;8.130;2024-03-06T06:53:20;1.00;;;1.00;;
86267;SDS011;76928;48.002;8.130;2024-03-06T06:55:47;1.15;;;1.10;;
86267;SDS011;76928;48.002;8.130;2024-03-06T06:58:14;1.00;;;1.00;;
86267;SDS011;76928;48.002;8.130;2024-03-06T07:00:41;0.90;;;0.90;;
86267;SDS011;76928;48.002;8.130;2024-03-06T07:03:08;1.00;;;1.00;;
86267;SDS011;76928;48.002;8.130;2024-03-06T07:05:34;1.20;;;1.10;;
86267;SDS011;76928;48.002;8.130;2024-03-06T07:08:01;0.90;;;0.90;;
86267;SDS011;76928;48.002;8.130;2024-03-06T07:10:28;0.90;;;0.90;;
86267;SDS011;76928;48.002;8.130;2024-03-06T07:12:55;1.00;;;1.00;;
86267;SDS011;76928;48.002;8.130;2024-03-06T07:15:21;0.95;;;0.90;;
86267;SDS011;76928;48.002;8.130;2024-03-06T07:17:48;1.10;;;1.00;;
86267;SDS011;76928;48.002;8.130;2024-03-06T07:20:15;0.90;;;0.90;;
86267;SDS011;76928;48.002;8.130;2024-03-06T07:22:41;0.93;;;0.93;;
86267;SDS011;76928;48.002;8.130;2024-03-06T07:25:08;1.05;;;0.95;;
86267;SDS011;76928;48.002;8.130;2024-03-06T07:27:35;0.90;;;0.90;;
86267;SDS011;76928;48.002;8.130;2024-03-06T07:30:02;0.90;;;0.90;;
86267;SDS011;76928;48.002;8.130;2024-03-06T07:32:29;0.90;;;0.90;;
86267;SDS011;76928;48.002;8.130;2024-03-06T07:34:56;1.08;;;1.00;;
86267;SDS011;76928;48.002;8.130;2024-03-06T07:37:24;0.90;;;0.90;;
86267;SDS011;76928;48.002;8.130;2024-03-06T07:39:51;0.90;;;0.90;;
86267;SDS011;76928;48.002;8.130;2024-03-06T07:42:18;0.90;;;0.90;;
86267;SDS011;76928;48.002;8.130;2024-03-06T07:44:44;1.10;;;1.00;;
86267;SDS011;76928;48.002;8.130;2024-03-06T07:47:11;1.00;;;1.00;;
86267;SDS011;76928;48.002;8.130;2024-03-06T07:49:39;0.90;;;0.90;;
86267;SDS011;76928;48.002;8.130;2024-03-06T07:52:05;0.82;;;0.82;;
86267;SDS011;76928;48.002;8.130;2024-03-06T07:54:32;1.20;;;1.10;;
86267;SDS011;76928;48.002;8.130;2024-03-06T07:56:59;0.90;;;0.90;;
86267;SDS011;76928;48.002;8.130;2024-03-06T07:59:26;0.80;;;0.80;;
86267;SDS011;76928;48.002;8.130;2024-03-06T08:01:53;0.90;;;0.90;;
86267;SDS011;76928;48.002;8.130;2024-03-06T08:04:20;0.93;;;0.93;;
86267;SDS011;76928;48.002;8.130;2024-03-06T08:06:48;1.00;;;1.00;;
86267;SDS011;76928;48.002;8.130;2024-03-06T08:09:15;1.00;;;1.00;;
86267;SDS011;76928;48.002;8.130;2024-03-06T08:11:45;1.05;;;1.00;;
86267;SDS011;76928;48.002;8.130;2024-03-06T08:14:12;0.93;;;0.90;;
86267;SDS011;76928;48.002;8.130;2024-03-06T08:16:40;1.00;;;1.00;;
86267;SDS011;76928;48.002;8.130;2024-03-06T08:19:08;1.10;;;1.00;;
86267;SDS011;76928;48.002;8.130;2024-03-06T08:21:35;1.05;;;0.98;;
86267;SDS011;76928;48.002;8.130;2024-03-06T08:24:02;0.90;;;0.90;;
86267;SDS011;76928;48.002;8.130;2024-03-06T08:26:29;1.07;;;1.03;;
86267;SDS011;76928;48.002;8.130;2024-03-06T08:28:56;0.90;;;0.90;;
86267;SDS011;76928;48.002;8.130;2024-03-06T08:31:22;1.00;;;1.00;;
86267;SDS011;76928;48.002;8.130;2024-03-06T08:33:51;0.70;;;0.70;;
86267;SDS011;76928;48.002;8.130;2024-03-06T08:36:19;0.90;;;0.90;;
86267;SDS011;76928;48.002;8.130;2024-03-06T08:38:46;0.80;;;0.80;;
86267;SDS011;76928;48.002;8.130;2024-03-06T08:41:13;0.80;;;0.80;;
86267;SDS011;76928;48.002;8.130;2024-03-06T08:43:40;0.90;;;0.90;;
86267;SDS011;76928;48.002;8.130;2024-03-06T08:46:07;0.80;;;0.80;;
86267;SDS011;76928;48.002;8.130;2024-03-06T08:48:34;0.93;;;0.93;;
86267;SDS011;76928;48.002;8.130;2024-03-06T08:51:01;0.90;;;0.90;;
86267;SDS011;76928;48.002;8.130;2024-03-06T08:53:29;1.20;;;1.10;;
86267;SDS011;76928;48.002;8.130;2024-03-06T08:55:55;0.93;;;0.93;;
86267;SDS011;76928;48.002;8.130;2024-03-06T08:58:23;0.90;;;0.90;;
86267;SDS011;76928;48.002;8.130;2024-03-06T09:00:49;1.02;;;0.95;;
86267;SDS011;76928;48.002;8.130;2024-03-06T09:03:16;1.23;;;1.00;;
86267;SDS011;76928;48.002;8.130;2024-03-06T09:05:43;1.13;;;1.08;;
86267;SDS011;76928;48.002;8.130;2024-03-06T09:08:10;2.63;;;2.40;;
86267;SDS011;76928;48.002;8.130;2024-03-06T09:10:38;2.73;;;2.40;;
86267;SDS011;76928;48.002;8.130;2024-03-06T09:13:05;2.20;;;2.00;;
86267;SDS011;76928;48.002;8.130;2024-03-06T09:15:31;2.73;;;2.53;;
86267;SDS011;76928;48.002;8.130;2024-03-06T09:17:58;2.20;;;2.00;;
86267;SDS011;76928;48.002;8.130;2024-03-06T09:20:25;2.35;;;2.15;;
86267;SDS011;76928;48.002;8.130;2024-03-06T09:22:52;2.65;;;2.40;;
86267;SDS011;76928;48.002;8.130;2024-03-06T09:25:22;3.10;;;2.80;;
86267;SDS011;76928;48.002;8.130;2024-03-06T09:27:49;3.20;;;2.90;;
86267;SDS011;76928;48.002;8.130;2024-03-06T09:30:16;2.40;;;2.20;;
86267;SDS011;76928;48.002;8.130;2024-03-06T09:32:43;3.33;;;3.03;;
86267;SDS011;76928;48.002;8.130;2024-03-06T09:35:10;3.27;;;2.97;;
86267;SDS011;76928;48.002;8.130;2024-03-06T09:37:37;3.67;;;3.20;;
86267;SDS011;76928;48.002;8.130;2024-03-06T09:40:04;3.63;;;3.33;;
86267;SDS011;76928;48.002;8.130;2024-03-06T09:42:33;4.10;;;3.70;;
86267;SDS011;76928;48.002;8.130;2024-03-06T09:45:00;4.20;;;3.80;;
86267;SDS011;76928;48.002;8.130;2024-03-06T09:47:28;4.30;;;3.90;;
86267;SDS011;76928;48.002;8.130;2024-03-06T09:49:59;12.63;;;11.70;;
86267;SDS011;76928;48.002;8.130;2024-03-06T09:52:29;13.77;;;12.77;;
86267;SDS011;76928;48.002;8.130;2024-03-06T09:54:56;9.80;;;9.00;;
86267;SDS011;76928;48.002;8.130;2024-03-06T09:57:23;9.68;;;8.98;;
86267;SDS011;76928;48.002;8.130;2024-03-06T09:59:50;8.70;;;8.10;;
86267;SDS011;76928;48.002;8.130;2024-03-06T10:05:04;7.57;;;7.00;;
86267;SDS011;76928;48.002;8.130;2024-03-06T10:07:32;7.55;;;6.95;;
86267;SDS011;76928;48.002;8.130;2024-03-06T10:09:59;6.93;;;6.43;;
86267;SDS011;76928;48.002;8.130;2024-03-06T10:12:26;6.80;;;6.20;;
86267;SDS011;76928;48.002;8.130;2024-03-06T10:14:54;6.53;;;5.97;;
86267;SDS011;76928;48.002;8.130;2024-03-06T10:17:22;5.60;;;5.20;;
86267;SDS011;76928;48.002;8.130;2024-03-06T10:19:49;5.10;;;4.65;;
86267;SDS011;76928;48.002;8.130;2024-03-06T10:22:18;4.70;;;4.30;;
86267;SDS011;76928;48.002;8.130;2024-03-06T10:24:46;4.10;;;3.80;;
86267;SDS011;76928;48.002;8.130;2024-03-06T10:27:16;4.38;;;3.97;;
86267;SDS011;76928;48.002;8.130;2024-03-06T10:29:43;3.90;;;3.60;;
86267;SDS011;76928;48.002;8.130;2024-03-06T10:32:10;4.17;;;3.70;;
86267;SDS011;76928;48.002;8.130;2024-03-06T10:34:44;3.90;;;3.60;;
86267;SDS011;76928;48.002;8.130;2024-03-06T10:37:11;3.60;;;3.30;;
86267;SDS011;76928;48.002;8.130;2024-03-06T10:39:40;3.10;;;2.90;;
86267;SDS011;76928;48.002;8.130;2024-03-06T10:42:10;3.10;;;2.90;;
86267;SDS011;76928;48.002;8.130;2024-03-06T10:44:41;3.20;;;3.00;;
86267;SDS011;76928;48.002;8.130;2024-03-06T10:47:18;2.80;;;2.60;;
86267;SDS011;76928;48.002;8.130;2024-03-06T10:49:45;2.83;;;2.53;;
86267;SDS011;76928;48.002;8.130;2024-03-06T10:52:13;2.40;;;2.20;;
86267;SDS011;76928;48.002;8.130;2024-03-06T10:54:42;2.30;;;2.10;;
86267;SDS011;76928;48.002;8.130;2024-03-06T10:57:12;2.20;;;2.00;;
86267;SDS011;76928;48.002;8.130;2024-03-06T10:59:39;2.00;;;1.90;;
86267;SDS011;76928;48.002;8.130;2024-03-06T11:02:08;1.98;;;1.88;;
86267;SDS011;76928;48.002;8.130;2024-03-06T11:04:35;2.15;;;2.00;;
86267;SDS011;76928;48.002;8.130;2024-03-06T11:07:06;1.80;;;1.70;;
86267;SDS011;76928;48.002;8.130;2024-03-06T11:12:04;1.67;;;1.57;;
86267;SDS011;76928;48.002;8.130;2024-03-06T11:14:37;1.60;;;1.50;;
86267;SDS011;76928;48.002;8.130;2024-03-06T11:17:06;1.60;;;1.50;;
86267;SDS011;76928;48.002;8.130;2024-03-06T11:28:12;1.60;;;1.50;;
86267;SDS011;76928;48.002;8.130;2024-03-06T11:33:34;1.30;;;1.20;;
86267;SDS011;76928;48.002;8.130;2024-03-06T11:39:04;1.55;;;1.30;;
86267;SDS011;76928;48.002;8.130;2024-03-06T11:41:46;1.40;;;1.30;;
86267;SDS011;76928;48.002;8.130;2024-03-06T11:44:20;1.13;;;1.10;;
86267;SDS011;76928;48.002;8.130;2024-03-06T11:49:34;2.20;;;1.27;;
86267;SDS011;76928;48.002;8.130;2024-03-06T11:52:03;1.13;;;1.03;;
86267;SDS011;76928;48.002;8.130;2024-03-06T11:54:36;1.00;;;1.00;;
86267;SDS011;76928;48.002;8.130;2024-03-06T11:57:04;1.10;;;1.00;;
86267;SDS011;76928;48.002;8.130;2024-03-06T11:59:32;0.93;;;0.93;;
86267;SDS011;76928;48.002;8.130;2024-03-06T12:02:01;1.10;;;1.00;;
86267;SDS011;76928;48.002;8.130;2024-03-06T12:04:31;0.88;;;0.88;;
86267;SDS011;76928;48.002;8.130;2024-03-06T12:07:00;0.90;;;0.90;;
86267;SDS011;76928;48.002;8.130;2024-03-06T12:09:35;1.00;;;0.90;;
86267;SDS011;76928;48.002;8.130;2024-03-06T12:12:03;1.10;;;1.00;;
86267;SDS011;76928;48.002;8.130;2024-03-06T12:14:35;1.90;;;1.00;;
86267;SDS011;76928;48.002;8.130;2024-03-06T12:17:02;0.80;;;0.80;;
86267;SDS011;76928;48.002;8.130;2024-03-06T12:19:31;0.90;;;0.90;;
86267;SDS011;76928;48.002;8.130;2024-03-06T12:21:59;0.90;;;0.90;;
86267;SDS011;76928;48.002;8.130;2024-03-06T12:24:27;0.90;;;0.90;;
86267;SDS011;76928;48.002;8.130;2024-03-06T12:27:01;0.93;;;0.93;;
86267;SDS011;76928;48.002;8.130;2024-03-06T12:29:30;0.90;;;0.90;;
86267;SDS011;76928;48.002;8.130;2024-03-06T12:32:01;0.98;;;0.98;;
86267;SDS011;76928;48.002;8.130;2024-03-06T12:34:28;0.90;;;0.90;;
86267;SDS011;76928;48.002;8.130;2024-03-06T12:37:16;0.80;;;0.80;;
86267;SDS011;76928;48.002;8.130;2024-03-06T12:39:44;1.10;;;1.00;;
86267;SDS011;76928;48.002;8.130;2024-03-06T12:42:11;0.85;;;0.85;;
86267;SDS011;76928;48.002;8.130;2024-03-06T12:44:41;0.90;;;0.90;;
86267;SDS011;76928;48.002;8.130;2024-03-06T12:47:07;0.90;;;0.90;;
86267;SDS011;76928;48.002;8.130;2024-03-06T12:49:34;0.85;;;0.85;;
86267;SDS011;76928;48.002;8.130;2024-03-06T12:52:01;0.70;;;0.70;;
86267;SDS011;76928;48.002;8.130;2024-03-06T12:54:29;0.82;;;0.80;;
86267;SDS011;76928;48.002;8.130;2024-03-06T12:56:55;0.90;;;0.90;;
86267;SDS011;76928;48.002;8.130;2024-03-06T12:59:22;0.80;;;0.80;;
86267;SDS011;76928;48.002;8.130;2024-03-06T13:01:49;0.80;;;0.80;;
86267;SDS011;76928;48.002;8.130;2024-03-06T13:04:16;0.73;;;0.73;;
86267;SDS011;76928;48.002;8.130;2024-03-06T13:06:43;0.77;;;0.77;;
86267;SDS011;76928;48.002;8.130;2024-03-06T13:09:11;0.70;;;0.70;;
86267;SDS011;76928;48.002;8.130;2024-03-06T13:11:39;0.70;;;0.70;;
86267;SDS011;76928;48.002;8.130;2024-03-06T13:14:07;0.70;;;0.70;;
86267;SDS011;76928;48.002;8.130;2024-03-06T13:16:37;1.17;;;0.80;;
86267;SDS011;76928;48.002;8.130;2024-03-06T13:19:05;0.70;;;0.70;;
86267;SDS011;76928;48.002;8.130;2024-03-06T13:21:32;0.80;;;0.80;;
86267;SDS011;76928;48.002;8.130;2024-03-06T13:23:59;0.90;;;0.70;;
86267;SDS011;76928;48.002;8.130;2024-03-06T13:26:25;0.70;;;0.70;;
86267;SDS011;76928;48.002;8.130;2024-03-06T13:28:52;0.80;;;0.80;;
86267;SDS011;76928;48.002;8.130;2024-03-06T13:31:19;0.70;;;0.70;;
86267;SDS011;76928;48.002;8.130;2024-03-06T13:33:46;0.65;;;0.65;;
86267;SDS011;76928;48.002;8.130;2024-03-06T13:36:14;0.70;;;0.70;;
86267;SDS011;76928;48.002;8.130;2024-03-06T13:38:41;0.63;;;0.63;;
86267;SDS011;76928;48.002;8.130;2024-03-06T13:41:07;0.70;;;0.70;;
86267;SDS011;76928;48.002;8.130;2024-03-06T13:43:34;0.60;;;0.60;;
86267;SDS011;76928;48.002;8.130;2024-03-06T13:46:01;0.57;;;0.57;;
86267;SDS011;76928;48.002;8.130;2024-03-06T13:48:28;0.70;;;0.70;;
86267;SDS011;76928;48.002;8.130;2024-03-06T13:50:54;0.70;;;0.70;;
86267;SDS011;76928;48.002;8.130;2024-03-06T13:53:21;0.60;;;0.60;;
86267;SDS011;76928;48.002;8.130;2024-03-06T13:55:48;0.60;;;0.60;;
86267;SDS011;76928;48.002;8.130;2024-03-06T13:58:15;0.60;;;0.60;;
86267;SDS011;76928;48.002;8.130;2024-03-06T14:00:41;1.30;;;0.68;;
86267;SDS011;76928;48.002;8.130;2024-03-06T14:03:08;0.50;;;0.50;;
86267;SDS011;76928;48.002;8.130;2024-03-06T14:05:38;0.60;;;0.60;;
86267;SDS011;76928;48.002;8.130;2024-03-06T14:08:05;0.60;;;0.60;;
86267;SDS011;76928;48.002;8.130;2024-03-06T14:10:35;0.60;;;0.60;;
86267;SDS011;76928;48.002;8.130;2024-03-06T14:13:03;0.60;;;0.60;;
86267;SDS011;76928;48.002;8.130;2024-03-06T14:15:29;0.82;;;0.70;;
86267;SDS011;76928;48.002;8.130;2024-03-06T14:17:56;0.50;;;0.50;;
86267;SDS011;76928;48.002;8.130;2024-03-06T14:20:23;0.60;;;0.60;;
86267;SDS011;76928;48.002;8.130;2024-03-06T14:22:50;0.57;;;0.57;;
86267;SDS011;76928;48.002;8.130;2024-03-06T14:25:17;0.52;;;0.40;;
86267;SDS011;76928;48.002;8.130;2024-03-06T14:27:43;1.30;;;0.60;;
86267;SDS011;76928;48.002;8.130;2024-03-06T14:30:11;0.50;;;0.50;;
86267;SDS011;76928;48.002;8.130;2024-03-06T14:32:38;0.50;;;0.50;;
86267;SDS011;76928;48.002;8.130;2024-03-06T14:35:05;0.60;;;0.60;;
86267;SDS011;76928;48.002;8.130;2024-03-06T14:37:32;0.60;;;0.60;;
86267;SDS011;76928;48.002;8.130;2024-03-06T14:39:59;0.50;;;0.50;;
86267;SDS011;76928;48.002;8.130;2024-03-06T14:42:26;0.50;;;0.50;;
86267;SDS011;76928;48.002;8.130;2024-03-06T14:44:53;0.50;;;0.50;;
86267;SDS011;76928;48.002;8.130;2024-03-06T14:47:20;0.70;;;0.60;;
86267;SDS011;76928;48.002;8.130;2024-03-06T14:49:47;0.60;;;0.60;;
86267;SDS011;76928;48.002;8.130;2024-03-06T14:52:13;0.50;;;0.50;;
86267;SDS011;76928;48.002;8.130;2024-03-06T14:54:40;0.50;;;0.50;;
86267;SDS011;76928;48.002;8.130;2024-03-06T14:57:07;0.50;;;0.50;;
86267;SDS011;76928;48.002;8.130;2024-03-06T14:59:34;0.50;;;0.50;;
86267;SDS011;76928;48.002;8.130;2024-03-06T15:02:01;0.60;;;0.60;;
86267;SDS011;76928;48.002;8.130;2024-03-06T15:04:29;0.60;;;0.60;;
86267;SDS011;76928;48.002;8.130;2024-03-06T15:06:56;0.60;;;0.50;;
86267;SDS011;76928;48.002;8.130;2024-03-06T15:09:23;0.60;;;0.60;;
86267;SDS011;76928;48.002;8.130;2024-03-06T15:11:52;0.60;;;0.60;;
86267;SDS011;76928;48.002;8.130;2024-03-06T15:14:19;0.60;;;0.60;;